Tunker, Indiana
Current Conditions -  °F | °C
As of 9:55 AM on Tuesday 21 Oct 2014 (Local Time) from KHHG Reporting Station
Overcast Overcast  
Wind Chill: 43°   Ceiling: 6000
Heat Index: 48°   Visibility: 10mi
Dew Point: 41°   Wind: 12mph
Humidity: 78%   Direction: 340°NNW
Pressure: 30.05"   Gusts: 16mph
Location:  41.056°N, 85.6112°W
Report Text: KHHG 211355Z AUTO 34010G14KT 10SM SCT019 OVC060 09/05 A3005 RMK AO2 T00880052
Loading
Personal Weather Stations






























Interactive Weather Map New forecast layout! Learn more

10-Day Weather Forecast

Advertisements
Track Severe Weather on mobile